RYR6K LICJ-LIMC
Flight info
| Callsign | RYR6K |
|---|---|
| Flight time | 1h 20m |
| Altitude | 38000 |
| Route | GIANO DCT RONAB DCT RUVIP DCT BETOT DCT POKAV DCT TINTO DCT ELB DCT UPDIN DCT SPEZI DCT IDONA/N0334F180 Y69 MEBUR |
| Aircraft | B738/M-SDE2E3FGHIRWXY/LB1 |
Departure
| Time | 2026-05-07 21:10 |
|---|---|
| Airport | Falcone–Borsellino Airport (LICJ) |
Arrival
| Time | 2026-05-07 22:31 |
|---|---|
| Airport | Milan Malpensa International Airport (LIMC) |
| Time | Latitude | Longitude | Altitude | Speed | Heading |
|---|---|---|---|---|---|
| 2026-05-07 20:37 | 38.18554 | 13.10606 | 63 ft | 0 kts | 337° |
| 2026-05-07 21:02 | 38.18551 | 13.10607 | 64 ft | 2 kts | 310° |
| 2026-05-07 21:03 | 38.18540 | 13.10622 | 56 ft | 2 kts | 342° |
| 2026-05-07 21:03 | 38.18524 | 13.10627 | 55 ft | 2 kts | 347° |
| 2026-05-07 21:03 | 38.18508 | 13.10631 | 57 ft | 2 kts | 355° |
| 2026-05-07 21:03 | 38.18491 | 13.10631 | 57 ft | 2 kts | 9° |
| 2026-05-07 21:04 | 38.18478 | 13.10626 | 57 ft | 1 kts | 44° |
| 2026-05-07 21:04 | 38.18475 | 13.10623 | 57 ft | 0 kts | 57° |
| 2026-05-07 21:05 | 38.18478 | 13.10629 | 58 ft | 3 kts | 61° |
| 2026-05-07 21:06 | 38.18501 | 13.10693 | 59 ft | 12 kts | 66° |
| 2026-05-07 21:06 | 38.18490 | 13.10804 | 59 ft | 13 kts | 109° |
| 2026-05-07 21:06 | 38.18475 | 13.10913 | 64 ft | 13 kts | 68° |
| 2026-05-07 21:06 | 38.18510 | 13.11014 | 61 ft | 12 kts | 66° |
| 2026-05-07 21:07 | 38.18544 | 13.11113 | 61 ft | 12 kts | 66° |
| 2026-05-07 21:07 | 38.18528 | 13.11204 | 57 ft | 12 kts | 135° |
| 2026-05-07 21:07 | 38.18528 | 13.11298 | 58 ft | 11 kts | 66° |
| 2026-05-07 21:07 | 38.18559 | 13.11387 | 61 ft | 11 kts | 68° |
| 2026-05-07 21:08 | 38.18587 | 13.11475 | 62 ft | 11 kts | 68° |
| 2026-05-07 21:08 | 38.18614 | 13.11561 | 61 ft | 10 kts | 73° |
| 2026-05-07 21:08 | 38.18613 | 13.11649 | 65 ft | 10 kts | 97° |
| 2026-05-07 21:08 | 38.18604 | 13.11735 | 63 ft | 10 kts | 97° |
| 2026-05-07 21:09 | 38.18596 | 13.11819 | 63 ft | 9 kts | 97° |
| 2026-05-07 21:09 | 38.18562 | 13.11885 | 63 ft | 9 kts | 154° |
| 2026-05-07 21:09 | 38.18508 | 13.11852 | 62 ft | 10 kts | 236° |
| 2026-05-07 21:09 | 38.18459 | 13.11708 | 68 ft | 39 kts | 246° |
| 2026-05-07 21:10 | 38.18256 | 13.11102 | 66 ft | 108 kts | 247° |
| 2026-05-07 21:10 | 38.17881 | 13.09965 | 66 ft | 165 kts | 248° |
| 2026-05-07 21:10 | 38.17452 | 13.08549 | 619 ft | 174 kts | 249° |
| 2026-05-07 21:10 | 38.17026 | 13.07160 | 1604 ft | 164 kts | 248° |
| 2026-05-07 21:11 | 38.16584 | 13.05816 | 2275 ft | 171 kts | 247° |
| 2026-05-07 21:11 | 38.16090 | 13.04320 | 2628 ft | 194 kts | 248° |
| 2026-05-07 21:11 | 38.16083 | 13.00728 | 3310 ft | 227 kts | 298° |
| 2026-05-07 21:12 | 38.17118 | 12.99106 | 3615 ft | 251 kts | 311° |
| 2026-05-07 21:12 | 38.18346 | 12.97434 | 4156 ft | 262 kts | 308° |
| 2026-05-07 21:12 | 38.19513 | 12.95633 | 4929 ft | 265 kts | 305° |
| 2026-05-07 21:12 | 38.20620 | 12.93757 | 5770 ft | 265 kts | 303° |
| 2026-05-07 21:13 | 38.21681 | 12.91840 | 6566 ft | 266 kts | 301° |
| 2026-05-07 21:13 | 38.22720 | 12.89882 | 7277 ft | 269 kts | 300° |
| 2026-05-07 21:13 | 38.23756 | 12.87879 | 7988 ft | 272 kts | 299° |
| 2026-05-07 21:13 | 38.24789 | 12.85845 | 8713 ft | 275 kts | 299° |
| 2026-05-07 21:14 | 38.25828 | 12.83779 | 9449 ft | 279 kts | 298° |
| 2026-05-07 21:14 | 38.26876 | 12.81683 | 10133 ft | 283 kts | 298° |
| 2026-05-07 21:14 | 38.27967 | 12.79492 | 10350 ft | 305 kts | 298° |
| 2026-05-07 21:14 | 38.29201 | 12.77193 | 10587 ft | 326 kts | 309° |
| 2026-05-07 21:15 | 38.31099 | 12.75517 | 11099 ft | 342 kts | 334° |
| 2026-05-07 21:15 | 38.33458 | 12.74916 | 11804 ft | 351 kts | 354° |
| 2026-05-07 21:15 | 38.35849 | 12.74447 | 12491 ft | 348 kts | 336° |
| 2026-05-07 21:15 | 38.38044 | 12.73179 | 13221 ft | 348 kts | 330° |
| 2026-05-07 21:16 | 38.40236 | 12.71834 | 13897 ft | 351 kts | 331° |
| 2026-05-07 21:16 | 38.42459 | 12.70491 | 14561 ft | 355 kts | 331° |
| 2026-05-07 21:16 | 38.44703 | 12.69159 | 15280 ft | 357 kts | 331° |
| 2026-05-07 21:16 | 38.46969 | 12.67834 | 15949 ft | 360 kts | 332° |
| 2026-05-07 21:17 | 38.49260 | 12.66506 | 16590 ft | 364 kts | 332° |
| 2026-05-07 21:17 | 38.51581 | 12.65168 | 17229 ft | 368 kts | 332° |
| 2026-05-07 21:17 | 38.53905 | 12.63831 | 17866 ft | 372 kts | 332° |
| 2026-05-07 21:17 | 38.56303 | 12.62454 | 18456 ft | 376 kts | 332° |
| 2026-05-07 21:18 | 38.58674 | 12.61091 | 19000 ft | 379 kts | 332° |
| 2026-05-07 21:18 | 38.61092 | 12.59701 | 19540 ft | 383 kts | 332° |
| 2026-05-07 21:18 | 38.63531 | 12.58298 | 20077 ft | 386 kts | 332° |
| 2026-05-07 21:18 | 38.65994 | 12.56880 | 20623 ft | 390 kts | 331° |
| 2026-05-07 21:19 | 38.68473 | 12.55452 | 21179 ft | 392 kts | 331° |
| 2026-05-07 21:19 | 38.70964 | 12.54016 | 21782 ft | 393 kts | 331° |
| 2026-05-07 21:19 | 38.73465 | 12.52573 | 22340 ft | 396 kts | 330° |
| 2026-05-07 21:19 | 38.75988 | 12.51116 | 22857 ft | 399 kts | 330° |
| 2026-05-07 21:20 | 38.78524 | 12.49649 | 23368 ft | 401 kts | 330° |
| 2026-05-07 21:20 | 38.81082 | 12.48170 | 23807 ft | 404 kts | 330° |
| 2026-05-07 21:20 | 38.83660 | 12.46677 | 24189 ft | 408 kts | 330° |
| 2026-05-07 21:20 | 38.86256 | 12.45173 | 24558 ft | 412 kts | 330° |
| 2026-05-07 21:21 | 38.88891 | 12.43669 | 24931 ft | 416 kts | 331° |
| 2026-05-07 21:21 | 38.91562 | 12.42192 | 25322 ft | 420 kts | 331° |
| 2026-05-07 21:21 | 38.94255 | 12.40725 | 25833 ft | 420 kts | 331° |
| 2026-05-07 21:21 | 38.96959 | 12.39253 | 26113 ft | 426 kts | 331° |
| 2026-05-07 21:22 | 38.99710 | 12.37750 | 26368 ft | 432 kts | 331° |
| 2026-05-07 21:22 | 39.02480 | 12.36233 | 26726 ft | 435 kts | 331° |
| 2026-05-07 21:22 | 39.05271 | 12.34701 | 27090 ft | 437 kts | 331° |
| 2026-05-07 21:22 | 39.08083 | 12.33154 | 27430 ft | 441 kts | 330° |
| 2026-05-07 21:23 | 39.10914 | 12.31593 | 27743 ft | 445 kts | 330° |
| 2026-05-07 21:23 | 39.13769 | 12.30016 | 28053 ft | 448 kts | 330° |
| 2026-05-07 21:23 | 39.16640 | 12.28430 | 28410 ft | 451 kts | 330° |
| 2026-05-07 21:23 | 39.19531 | 12.26831 | 28769 ft | 453 kts | 330° |
| 2026-05-07 21:24 | 39.22431 | 12.25226 | 29074 ft | 456 kts | 330° |
| 2026-05-07 21:24 | 39.25360 | 12.23602 | 29338 ft | 460 kts | 330° |
| 2026-05-07 21:24 | 39.28310 | 12.21965 | 29628 ft | 463 kts | 330° |
| 2026-05-07 21:24 | 39.31271 | 12.20321 | 29929 ft | 466 kts | 330° |
| 2026-05-07 21:25 | 39.34259 | 12.18661 | 30188 ft | 468 kts | 330° |
| 2026-05-07 21:25 | 39.37248 | 12.17000 | 30486 ft | 469 kts | 330° |
| 2026-05-07 21:25 | 39.40249 | 12.15331 | 30850 ft | 468 kts | 330° |
| 2026-05-07 21:25 | 39.43226 | 12.13677 | 31295 ft | 465 kts | 330° |
| 2026-05-07 21:26 | 39.46192 | 12.12025 | 31683 ft | 463 kts | 329° |
| 2026-05-07 21:26 | 39.49151 | 12.10374 | 32002 ft | 463 kts | 329° |
| 2026-05-07 21:26 | 39.52101 | 12.08725 | 32340 ft | 462 kts | 329° |
| 2026-05-07 21:26 | 39.55045 | 12.07078 | 32722 ft | 460 kts | 329° |
| 2026-05-07 21:27 | 39.57980 | 12.05436 | 33105 ft | 458 kts | 329° |
| 2026-05-07 21:27 | 39.60898 | 12.03801 | 33469 ft | 457 kts | 329° |
| 2026-05-07 21:27 | 39.63810 | 12.02165 | 33704 ft | 458 kts | 329° |
| 2026-05-07 21:27 | 39.66735 | 12.00522 | 34021 ft | 457 kts | 329° |
| 2026-05-07 21:28 | 39.69421 | 11.99013 | 34318 ft | 455 kts | 329° |
| 2026-05-07 21:28 | 39.72322 | 11.97383 | 34617 ft | 453 kts | 329° |
| 2026-05-07 21:28 | 39.75214 | 11.95754 | 34866 ft | 453 kts | 329° |
| 2026-05-07 21:28 | 39.78104 | 11.94125 | 35098 ft | 453 kts | 329° |
| 2026-05-07 21:29 | 39.80995 | 11.92494 | 35360 ft | 452 kts | 329° |
| 2026-05-07 21:29 | 39.83873 | 11.90870 | 35634 ft | 450 kts | 329° |
| 2026-05-07 21:29 | 39.86747 | 11.89246 | 35915 ft | 449 kts | 328° |
| 2026-05-07 21:29 | 39.89648 | 11.87672 | 35912 ft | 457 kts | 331° |
| 2026-05-07 21:30 | 39.95631 | 11.84756 | 35924 ft | 459 kts | 332° |
| 2026-05-07 21:30 | 40.01554 | 11.81876 | 35921 ft | 451 kts | 331° |
| 2026-05-07 21:31 | 40.07407 | 11.78953 | 35936 ft | 450 kts | 331° |
| 2026-05-07 21:31 | 40.13241 | 11.76017 | 35932 ft | 449 kts | 331° |
| 2026-05-07 21:32 | 40.19072 | 11.73077 | 35938 ft | 449 kts | 331° |
| 2026-05-07 21:32 | 40.24902 | 11.70135 | 35938 ft | 450 kts | 331° |
| 2026-05-07 21:33 | 40.30748 | 11.67179 | 35956 ft | 451 kts | 331° |
| 2026-05-07 21:33 | 40.36565 | 11.64233 | 35946 ft | 452 kts | 331° |
| 2026-05-07 21:34 | 40.42447 | 11.61249 | 35938 ft | 453 kts | 331° |
| 2026-05-07 21:34 | 40.48331 | 11.58258 | 35945 ft | 454 kts | 331° |
| 2026-05-07 21:35 | 40.54223 | 11.55257 | 35940 ft | 454 kts | 331° |
| 2026-05-07 21:35 | 40.60118 | 11.52249 | 35949 ft | 454 kts | 331° |
| 2026-05-07 21:36 | 40.66009 | 11.49238 | 35945 ft | 453 kts | 331° |
| 2026-05-07 21:36 | 40.71881 | 11.46229 | 35949 ft | 452 kts | 331° |
| 2026-05-07 21:37 | 40.77733 | 11.43225 | 35949 ft | 451 kts | 331° |
| 2026-05-07 21:37 | 40.83574 | 11.40222 | 35956 ft | 449 kts | 330° |
| 2026-05-07 21:38 | 40.89390 | 11.37226 | 35949 ft | 448 kts | 330° |
| 2026-05-07 21:38 | 40.95177 | 11.34240 | 35950 ft | 446 kts | 330° |
| 2026-05-07 21:39 | 41.00928 | 11.31264 | 35975 ft | 444 kts | 330° |
| 2026-05-07 21:39 | 41.05709 | 11.28786 | 35957 ft | 444 kts | 330° |
| 2026-05-07 21:40 | 41.11448 | 11.25807 | 35959 ft | 443 kts | 330° |
| 2026-05-07 21:40 | 41.17172 | 11.22829 | 35956 ft | 442 kts | 330° |
| 2026-05-07 21:41 | 41.22902 | 11.19843 | 35983 ft | 442 kts | 330° |
| 2026-05-07 21:41 | 41.28608 | 11.16864 | 35953 ft | 440 kts | 330° |
| 2026-05-07 21:42 | 41.34269 | 11.13906 | 35956 ft | 435 kts | 330° |
| 2026-05-07 21:42 | 41.39891 | 11.10958 | 35957 ft | 434 kts | 330° |
| 2026-05-07 21:43 | 41.45499 | 11.08012 | 35981 ft | 432 kts | 330° |
| 2026-05-07 21:43 | 41.51095 | 11.05070 | 35956 ft | 432 kts | 330° |
| 2026-05-07 21:44 | 41.56692 | 11.02127 | 35968 ft | 432 kts | 330° |
| 2026-05-07 21:44 | 41.62134 | 10.99259 | 35968 ft | 433 kts | 330° |
| 2026-05-07 21:45 | 41.67745 | 10.96296 | 35986 ft | 434 kts | 330° |
| 2026-05-07 21:45 | 41.73367 | 10.93321 | 35977 ft | 435 kts | 330° |
| 2026-05-07 21:46 | 41.79008 | 10.90330 | 35974 ft | 436 kts | 330° |
| 2026-05-07 21:46 | 41.84659 | 10.87330 | 35972 ft | 437 kts | 330° |
| 2026-05-07 21:47 | 41.90315 | 10.84321 | 35984 ft | 438 kts | 331° |
| 2026-05-07 21:47 | 41.94070 | 10.82320 | 35982 ft | 438 kts | 331° |
| 2026-05-07 21:48 | 41.98268 | 10.80080 | 35976 ft | 439 kts | 331° |
| 2026-05-07 21:49 | 42.03932 | 10.77053 | 35972 ft | 439 kts | 331° |
| 2026-05-07 21:49 | 42.09597 | 10.74019 | 35972 ft | 438 kts | 331° |
| 2026-05-07 21:50 | 42.15269 | 10.70976 | 35987 ft | 438 kts | 331° |
| 2026-05-07 21:50 | 42.20929 | 10.67933 | 35980 ft | 438 kts | 331° |
| 2026-05-07 21:51 | 42.26590 | 10.64884 | 35981 ft | 438 kts | 331° |
| 2026-05-07 21:51 | 42.32240 | 10.61835 | 35982 ft | 437 kts | 331° |
| 2026-05-07 21:52 | 42.37878 | 10.58785 | 35978 ft | 436 kts | 331° |
| 2026-05-07 21:52 | 42.43517 | 10.55730 | 35993 ft | 436 kts | 331° |
| 2026-05-07 21:53 | 42.49156 | 10.52668 | 35994 ft | 436 kts | 331° |
| 2026-05-07 21:53 | 42.54788 | 10.49604 | 36005 ft | 436 kts | 331° |
| 2026-05-07 21:54 | 42.60429 | 10.46529 | 35988 ft | 437 kts | 331° |
| 2026-05-07 21:54 | 42.66071 | 10.43448 | 35989 ft | 437 kts | 331° |
| 2026-05-07 21:55 | 42.71719 | 10.40359 | 35997 ft | 438 kts | 331° |
| 2026-05-07 21:55 | 42.77160 | 10.36786 | 36020 ft | 432 kts | 324° |
| 2026-05-07 21:56 | 42.82392 | 10.32739 | 35995 ft | 432 kts | 323° |
| 2026-05-07 21:56 | 42.87623 | 10.28689 | 35989 ft | 433 kts | 323° |
| 2026-05-07 21:57 | 42.92876 | 10.24684 | 35997 ft | 433 kts | 324° |
| 2026-05-07 21:57 | 42.98268 | 10.20959 | 36014 ft | 438 kts | 329° |
| 2026-05-07 21:58 | 43.03917 | 10.17812 | 36003 ft | 440 kts | 331° |
| 2026-05-07 21:58 | 43.09594 | 10.14710 | 35996 ft | 439 kts | 330° |
| 2026-05-07 21:59 | 43.15244 | 10.11549 | 36001 ft | 438 kts | 330° |
| 2026-05-07 21:59 | 43.20870 | 10.08351 | 35867 ft | 436 kts | 330° |
| 2026-05-07 22:00 | 43.23649 | 10.06767 | 35596 ft | 429 kts | 330° |
| 2026-05-07 22:00 | 43.26389 | 10.05204 | 35335 ft | 424 kts | 329° |
| 2026-05-07 22:00 | 43.29095 | 10.03656 | 35083 ft | 420 kts | 329° |
| 2026-05-07 22:00 | 43.31785 | 10.02113 | 34841 ft | 418 kts | 329° |
| 2026-05-07 22:01 | 43.34465 | 10.00573 | 34601 ft | 417 kts | 329° |
| 2026-05-07 22:01 | 43.36960 | 9.99137 | 34378 ft | 416 kts | 329° |
| 2026-05-07 22:01 | 43.39625 | 9.97604 | 34156 ft | 415 kts | 329° |
| 2026-05-07 22:01 | 43.42289 | 9.96070 | 33910 ft | 414 kts | 329° |
| 2026-05-07 22:02 | 43.44935 | 9.94546 | 33639 ft | 413 kts | 329° |
| 2026-05-07 22:02 | 43.47584 | 9.93018 | 33369 ft | 412 kts | 329° |
| 2026-05-07 22:02 | 43.50227 | 9.91493 | 33102 ft | 411 kts | 329° |
| 2026-05-07 22:02 | 43.52860 | 9.89972 | 32839 ft | 410 kts | 329° |
| 2026-05-07 22:03 | 43.55477 | 9.88461 | 32548 ft | 406 kts | 329° |
| 2026-05-07 22:03 | 43.58061 | 9.86970 | 32213 ft | 401 kts | 329° |
| 2026-05-07 22:03 | 43.60623 | 9.85488 | 31872 ft | 398 kts | 329° |
| 2026-05-07 22:03 | 43.63167 | 9.84015 | 31510 ft | 394 kts | 329° |
| 2026-05-07 22:04 | 43.65684 | 9.82555 | 31163 ft | 392 kts | 329° |
| 2026-05-07 22:04 | 43.68191 | 9.81098 | 30805 ft | 389 kts | 329° |
| 2026-05-07 22:04 | 43.70674 | 9.79654 | 30445 ft | 386 kts | 330° |
| 2026-05-07 22:04 | 43.73145 | 9.78216 | 30092 ft | 384 kts | 330° |
| 2026-05-07 22:05 | 43.75600 | 9.76787 | 29682 ft | 381 kts | 330° |
| 2026-05-07 22:05 | 43.78036 | 9.75367 | 29290 ft | 378 kts | 330° |
| 2026-05-07 22:05 | 43.80445 | 9.73963 | 28919 ft | 374 kts | 330° |
| 2026-05-07 22:05 | 43.82832 | 9.72570 | 28563 ft | 371 kts | 330° |
| 2026-05-07 22:06 | 43.85197 | 9.71188 | 28193 ft | 367 kts | 330° |
| 2026-05-07 22:06 | 43.87540 | 9.69818 | 27825 ft | 364 kts | 330° |
| 2026-05-07 22:06 | 43.89865 | 9.68457 | 27481 ft | 361 kts | 330° |
| 2026-05-07 22:06 | 43.92175 | 9.67104 | 27126 ft | 358 kts | 330° |
| 2026-05-07 22:07 | 43.94460 | 9.65764 | 26779 ft | 356 kts | 330° |
| 2026-05-07 22:07 | 43.96733 | 9.64429 | 26429 ft | 353 kts | 330° |
| 2026-05-07 22:07 | 43.98985 | 9.63106 | 26085 ft | 351 kts | 331° |
| 2026-05-07 22:07 | 44.01215 | 9.61795 | 25743 ft | 349 kts | 331° |
| 2026-05-07 22:08 | 44.03445 | 9.60483 | 25422 ft | 347 kts | 331° |
| 2026-05-07 22:08 | 44.05658 | 9.59179 | 25075 ft | 345 kts | 331° |
| 2026-05-07 22:08 | 44.07856 | 9.57884 | 24740 ft | 343 kts | 332° |
| 2026-05-07 22:08 | 44.10047 | 9.56591 | 24405 ft | 342 kts | 332° |
| 2026-05-07 22:09 | 44.12231 | 9.55302 | 24071 ft | 340 kts | 332° |
| 2026-05-07 22:09 | 44.14408 | 9.54015 | 23724 ft | 340 kts | 332° |
| 2026-05-07 22:09 | 44.16548 | 9.52750 | 23356 ft | 338 kts | 333° |
| 2026-05-07 22:09 | 44.18707 | 9.51473 | 22977 ft | 336 kts | 333° |
| 2026-05-07 22:10 | 44.20883 | 9.50185 | 22620 ft | 334 kts | 333° |
| 2026-05-07 22:10 | 44.22983 | 9.48941 | 22300 ft | 332 kts | 333° |
| 2026-05-07 22:10 | 44.25102 | 9.47685 | 21970 ft | 329 kts | 333° |
| 2026-05-07 22:10 | 44.27203 | 9.46439 | 21640 ft | 327 kts | 333° |
| 2026-05-07 22:11 | 44.29293 | 9.45197 | 21323 ft | 325 kts | 333° |
| 2026-05-07 22:11 | 44.31368 | 9.43964 | 21002 ft | 324 kts | 333° |
| 2026-05-07 22:11 | 44.33436 | 9.42733 | 20683 ft | 322 kts | 334° |
| 2026-05-07 22:11 | 44.35492 | 9.41510 | 20364 ft | 321 kts | 334° |
| 2026-05-07 22:12 | 44.37541 | 9.40289 | 20040 ft | 319 kts | 334° |
| 2026-05-07 22:12 | 44.39571 | 9.39078 | 19742 ft | 317 kts | 334° |
| 2026-05-07 22:12 | 44.41601 | 9.37867 | 19415 ft | 316 kts | 334° |
| 2026-05-07 22:12 | 44.43623 | 9.36659 | 19110 ft | 316 kts | 334° |
| 2026-05-07 22:13 | 44.45639 | 9.35454 | 18790 ft | 315 kts | 334° |
| 2026-05-07 22:13 | 44.47651 | 9.34251 | 18487 ft | 314 kts | 334° |
| 2026-05-07 22:13 | 44.49656 | 9.33051 | 18128 ft | 314 kts | 334° |
| 2026-05-07 22:13 | 44.51660 | 9.31851 | 17790 ft | 312 kts | 334° |
| 2026-05-07 22:14 | 44.53654 | 9.30656 | 17471 ft | 311 kts | 335° |
| 2026-05-07 22:14 | 44.55642 | 9.29465 | 17147 ft | 310 kts | 335° |
| 2026-05-07 22:14 | 44.57617 | 9.28279 | 16836 ft | 308 kts | 334° |
| 2026-05-07 22:14 | 44.59585 | 9.27097 | 16517 ft | 307 kts | 335° |
| 2026-05-07 22:15 | 44.61542 | 9.25920 | 16215 ft | 306 kts | 334° |
| 2026-05-07 22:15 | 44.63495 | 9.24746 | 15919 ft | 304 kts | 334° |
| 2026-05-07 22:15 | 44.65431 | 9.23580 | 15608 ft | 303 kts | 335° |
| 2026-05-07 22:15 | 44.67361 | 9.22417 | 15317 ft | 301 kts | 335° |
| 2026-05-07 22:16 | 44.69288 | 9.21255 | 15005 ft | 301 kts | 335° |
| 2026-05-07 22:16 | 44.71206 | 9.20098 | 14705 ft | 300 kts | 335° |
| 2026-05-07 22:16 | 44.73120 | 9.18943 | 14412 ft | 299 kts | 335° |
| 2026-05-07 22:16 | 44.75033 | 9.17787 | 14118 ft | 298 kts | 335° |
| 2026-05-07 22:17 | 44.76939 | 9.16636 | 13839 ft | 297 kts | 335° |
| 2026-05-07 22:17 | 44.78801 | 9.15512 | 13561 ft | 294 kts | 335° |
| 2026-05-07 22:17 | 44.80676 | 9.14380 | 13281 ft | 292 kts | 335° |
| 2026-05-07 22:17 | 44.82539 | 9.13253 | 12994 ft | 290 kts | 335° |
| 2026-05-07 22:18 | 44.84411 | 9.12121 | 12716 ft | 288 kts | 335° |
| 2026-05-07 22:18 | 44.88051 | 9.09917 | 12159 ft | 285 kts | 335° |
| 2026-05-07 22:18 | 44.89890 | 9.08802 | 11864 ft | 283 kts | 336° |
| 2026-05-07 22:19 | 44.91667 | 9.07724 | 11595 ft | 281 kts | 336° |
| 2026-05-07 22:19 | 44.93461 | 9.06635 | 11320 ft | 280 kts | 336° |
| 2026-05-07 22:19 | 44.95246 | 9.05550 | 11038 ft | 278 kts | 336° |
| 2026-05-07 22:19 | 44.97018 | 9.04473 | 10768 ft | 277 kts | 336° |
| 2026-05-07 22:20 | 44.98784 | 9.03398 | 10491 ft | 276 kts | 336° |
| 2026-05-07 22:20 | 45.00529 | 9.02335 | 10213 ft | 274 kts | 336° |
| 2026-05-07 22:20 | 45.02262 | 9.01280 | 10088 ft | 267 kts | 336° |
| 2026-05-07 22:20 | 45.03960 | 9.00244 | 9838 ft | 266 kts | 336° |
| 2026-05-07 22:21 | 45.05563 | 8.99267 | 9561 ft | 265 kts | 336° |
| 2026-05-07 22:21 | 45.07251 | 8.98237 | 9275 ft | 263 kts | 336° |
| 2026-05-07 22:21 | 45.08929 | 8.97212 | 9006 ft | 262 kts | 336° |
| 2026-05-07 22:21 | 45.10599 | 8.96191 | 8727 ft | 261 kts | 336° |
| 2026-05-07 22:22 | 45.12264 | 8.95173 | 8448 ft | 260 kts | 336° |
| 2026-05-07 22:22 | 45.13928 | 8.94154 | 8163 ft | 260 kts | 336° |
| 2026-05-07 22:22 | 45.15591 | 8.93136 | 7853 ft | 260 kts | 336° |
| 2026-05-07 22:22 | 45.17253 | 8.92118 | 7553 ft | 261 kts | 336° |
| 2026-05-07 22:23 | 45.18918 | 8.91097 | 7267 ft | 261 kts | 336° |
| 2026-05-07 22:23 | 45.20585 | 8.90074 | 6980 ft | 261 kts | 336° |
| 2026-05-07 22:23 | 45.22249 | 8.89052 | 6704 ft | 260 kts | 337° |
| 2026-05-07 22:23 | 45.23910 | 8.88032 | 6412 ft | 261 kts | 337° |
| 2026-05-07 22:24 | 45.25570 | 8.87011 | 6227 ft | 257 kts | 337° |
| 2026-05-07 22:24 | 45.27191 | 8.86014 | 6095 ft | 251 kts | 337° |
| 2026-05-07 22:24 | 45.28768 | 8.85043 | 5970 ft | 243 kts | 337° |
| 2026-05-07 22:24 | 45.30296 | 8.84102 | 5860 ft | 236 kts | 337° |
| 2026-05-07 22:25 | 45.31282 | 8.83495 | 5792 ft | 230 kts | 337° |
| 2026-05-07 22:25 | 45.32737 | 8.82598 | 5691 ft | 228 kts | 337° |
| 2026-05-07 22:25 | 45.34201 | 8.81695 | 5462 ft | 231 kts | 337° |
| 2026-05-07 22:25 | 45.35688 | 8.80863 | 5241 ft | 229 kts | 345° |
| 2026-05-07 22:26 | 45.37230 | 8.80347 | 5023 ft | 227 kts | 350° |
| 2026-05-07 22:26 | 45.38781 | 8.79927 | 4782 ft | 226 kts | 351° |
| 2026-05-07 22:26 | 45.40316 | 8.79518 | 4573 ft | 221 kts | 351° |
| 2026-05-07 22:26 | 45.41810 | 8.79115 | 4315 ft | 216 kts | 350° |
| 2026-05-07 22:27 | 45.43270 | 8.78719 | 4063 ft | 211 kts | 350° |
| 2026-05-07 22:27 | 45.44694 | 8.78332 | 3804 ft | 205 kts | 349° |
| 2026-05-07 22:27 | 45.46068 | 8.77957 | 3595 ft | 198 kts | 349° |
| 2026-05-07 22:27 | 45.47408 | 8.77592 | 3384 ft | 194 kts | 349° |
| 2026-05-07 22:28 | 45.48707 | 8.77239 | 3291 ft | 185 kts | 349° |
| 2026-05-07 22:28 | 45.49966 | 8.76896 | 3053 ft | 181 kts | 349° |
| 2026-05-07 22:28 | 45.51190 | 8.76563 | 2804 ft | 178 kts | 349° |
| 2026-05-07 22:28 | 45.52392 | 8.76236 | 2575 ft | 173 kts | 349° |
| 2026-05-07 22:29 | 45.53527 | 8.75927 | 2369 ft | 163 kts | 348° |
| 2026-05-07 22:29 | 45.54620 | 8.75633 | 2160 ft | 157 kts | 349° |
| 2026-05-07 22:29 | 45.55689 | 8.75359 | 1910 ft | 154 kts | 349° |
| 2026-05-07 22:29 | 45.56737 | 8.75086 | 1746 ft | 154 kts | 348° |
| 2026-05-07 22:30 | 45.57792 | 8.74785 | 1554 ft | 155 kts | 347° |
| 2026-05-07 22:30 | 45.58856 | 8.74479 | 1301 ft | 155 kts | 348° |
| 2026-05-07 22:30 | 45.59914 | 8.74192 | 1076 ft | 153 kts | 349° |
| 2026-05-07 22:30 | 45.60950 | 8.73910 | 878 ft | 149 kts | 349° |
| 2026-05-07 22:31 | 45.61950 | 8.73639 | 712 ft | 141 kts | 349° |
| 2026-05-07 22:31 | 45.62703 | 8.73433 | 726 ft | 80 kts | 349° |
| 2026-05-07 22:31 | 45.63072 | 8.73317 | 732 ft | 36 kts | 333° |
| 2026-05-07 22:31 | 45.63251 | 8.73095 | 737 ft | 32 kts | 304° |
| 2026-05-07 22:32 | 45.63353 | 8.72869 | 740 ft | 20 kts | 303° |
| 2026-05-07 22:32 | 45.63401 | 8.72689 | 741 ft | 20 kts | 270° |
| 2026-05-07 22:32 | 45.63389 | 8.72499 | 741 ft | 19 kts | 259° |
| 2026-05-07 22:32 | 45.63365 | 8.72319 | 741 ft | 18 kts | 259° |
| 2026-05-07 22:33 | 45.63336 | 8.72131 | 741 ft | 20 kts | 257° |
| 2026-05-07 22:33 | 45.63289 | 8.71976 | 741 ft | 14 kts | 205° |
| 2026-05-07 22:33 | 45.63195 | 8.71994 | 739 ft | 15 kts | 168° |
| 2026-05-07 22:33 | 45.63080 | 8.72026 | 736 ft | 19 kts | 169° |
| 2026-05-07 22:34 | 45.62992 | 8.71975 | 734 ft | 15 kts | 252° |
| 2026-05-07 22:34 | 45.62972 | 8.71835 | 734 ft | 14 kts | 259° |
| 2026-05-07 22:34 | 45.62953 | 8.71694 | 734 ft | 14 kts | 259° |
| 2026-05-07 22:34 | 45.62931 | 8.71576 | 734 ft | 8 kts | 221° |
| 2026-05-07 22:35 | 45.62904 | 8.71577 | 734 ft | 4 kts | 172° |
| 2026-05-07 22:35 | 45.62874 | 8.71585 | 733 ft | 3 kts | 169° |
| 2026-05-07 22:35 | 45.62871 | 8.71585 | 733 ft | 0 kts | 169° |